N112PZ KPDX-KDLS
Flight info
| Callsign | N112PZ |
|---|---|
| Flight time | 0h 37m |
| Altitude | 5500 |
| Route | VFR FF REQUESTED |
| Aircraft | C172/L-DOV/C |
Departure
| Time | 2026-05-08 03:12 |
|---|---|
| Airport | Portland International Airport (KPDX) |
Arrival
| Time | 2026-05-08 03:49 |
|---|---|
| Airport | Columbia Gorge Regional Airport (KDLS) |
| Time | Latitude | Longitude | Altitude | Speed | Heading |
|---|---|---|---|---|---|
| 2026-05-08 02:56 | 45.58385 | -122.59932 | 28 ft | 0 kts | 145° |
| 2026-05-08 02:59 | 45.58382 | -122.59928 | 28 ft | 1 kts | 121° |
| 2026-05-08 02:59 | 45.58382 | -122.59925 | 28 ft | 1 kts | 105° |
| 2026-05-08 02:59 | 45.58381 | -122.59923 | 28 ft | 0 kts | 93° |
| 2026-05-08 03:00 | 45.58382 | -122.59918 | 28 ft | 0 kts | 70° |
| 2026-05-08 03:00 | 45.58384 | -122.59915 | 28 ft | 0 kts | 48° |
| 2026-05-08 03:00 | 45.58389 | -122.59911 | 28 ft | 0 kts | 9° |
| 2026-05-08 03:01 | 45.58390 | -122.59911 | 28 ft | 2 kts | 4° |
| 2026-05-08 03:02 | 45.58429 | -122.59915 | 28 ft | 6 kts | 18° |
| 2026-05-08 03:02 | 45.58478 | -122.59863 | 29 ft | 12 kts | 62° |
| 2026-05-08 03:02 | 45.58459 | -122.59760 | 30 ft | 11 kts | 119° |
| 2026-05-08 03:02 | 45.58412 | -122.59637 | 28 ft | 18 kts | 120° |
| 2026-05-08 03:03 | 45.58353 | -122.59486 | 27 ft | 16 kts | 120° |
| 2026-05-08 03:03 | 45.58304 | -122.59361 | 28 ft | 14 kts | 117° |
| 2026-05-08 03:03 | 45.58296 | -122.59312 | 28 ft | 0 kts | 81° |
| 2026-05-08 03:07 | 45.58296 | -122.59311 | 28 ft | 0 kts | 81° |
| 2026-05-08 03:07 | 45.58301 | -122.59284 | 27 ft | 5 kts | 57° |
| 2026-05-08 03:08 | 45.58303 | -122.59281 | 27 ft | 0 kts | 39° |
| 2026-05-08 03:09 | 45.58319 | -122.59265 | 27 ft | 4 kts | 31° |
| 2026-05-08 03:09 | 45.58344 | -122.59247 | 27 ft | 4 kts | 24° |
| 2026-05-08 03:09 | 45.58369 | -122.59231 | 26 ft | 4 kts | 29° |
| 2026-05-08 03:10 | 45.58379 | -122.59228 | 27 ft | 0 kts | 340° |
| 2026-05-08 03:10 | 45.58387 | -122.59255 | 27 ft | 3 kts | 286° |
| 2026-05-08 03:10 | 45.58389 | -122.59260 | 27 ft | 0 kts | 301° |
| 2026-05-08 03:11 | 45.58440 | -122.59390 | 27 ft | 39 kts | 300° |
| 2026-05-08 03:11 | 45.58640 | -122.59921 | 60 ft | 76 kts | 297° |
| 2026-05-08 03:11 | 45.58914 | -122.60653 | 209 ft | 86 kts | 301° |
| 2026-05-08 03:11 | 45.59226 | -122.61382 | 426 ft | 88 kts | 301° |
| 2026-05-08 03:12 | 45.59453 | -122.62157 | 657 ft | 88 kts | 284° |
| 2026-05-08 03:12 | 45.59609 | -122.63016 | 872 ft | 88 kts | 284° |
| 2026-05-08 03:12 | 45.59744 | -122.63871 | 1103 ft | 89 kts | 285° |
| 2026-05-08 03:12 | 45.59884 | -122.64729 | 1328 ft | 88 kts | 284° |
| 2026-05-08 03:13 | 45.60014 | -122.65583 | 1560 ft | 88 kts | 284° |
| 2026-05-08 03:13 | 45.60141 | -122.66445 | 1792 ft | 88 kts | 284° |
| 2026-05-08 03:13 | 45.60308 | -122.67280 | 2004 ft | 88 kts | 308° |
| 2026-05-08 03:13 | 45.60825 | -122.67679 | 2218 ft | 89 kts | 3° |
| 2026-05-08 03:14 | 45.61443 | -122.67589 | 2420 ft | 89 kts | 2° |
| 2026-05-08 03:14 | 45.62068 | -122.67515 | 2631 ft | 87 kts | 4° |
| 2026-05-08 03:14 | 45.62636 | -122.67443 | 2888 ft | 82 kts | 4° |
| 2026-05-08 03:14 | 45.63213 | -122.67369 | 3086 ft | 83 kts | 4° |
| 2026-05-08 03:15 | 45.63786 | -122.67291 | 3285 ft | 83 kts | 3° |
| 2026-05-08 03:15 | 45.64362 | -122.67210 | 3481 ft | 84 kts | 4° |
| 2026-05-08 03:15 | 45.64943 | -122.67126 | 3672 ft | 84 kts | 4° |
| 2026-05-08 03:15 | 45.65509 | -122.66968 | 3844 ft | 87 kts | 33° |
| 2026-05-08 03:16 | 45.65736 | -122.66176 | 4024 ft | 90 kts | 77° |
| 2026-05-08 03:16 | 45.65888 | -122.65303 | 4207 ft | 91 kts | 76° |
| 2026-05-08 03:16 | 45.65963 | -122.64404 | 4383 ft | 92 kts | 95° |
| 2026-05-08 03:16 | 45.65935 | -122.63480 | 4559 ft | 94 kts | 92° |
| 2026-05-08 03:17 | 45.65913 | -122.62545 | 4730 ft | 95 kts | 92° |
| 2026-05-08 03:17 | 45.65892 | -122.61597 | 4906 ft | 96 kts | 93° |
| 2026-05-08 03:17 | 45.65871 | -122.60642 | 5065 ft | 97 kts | 93° |
| 2026-05-08 03:17 | 45.65850 | -122.59678 | 5228 ft | 97 kts | 93° |
| 2026-05-08 03:18 | 45.65829 | -122.58707 | 5377 ft | 98 kts | 93° |
| 2026-05-08 03:18 | 45.65808 | -122.57722 | 5499 ft | 103 kts | 93° |
| 2026-05-08 03:18 | 45.65781 | -122.56627 | 5502 ft | 117 kts | 94° |
| 2026-05-08 03:18 | 45.65750 | -122.55437 | 5505 ft | 119 kts | 94° |
| 2026-05-08 03:19 | 45.65722 | -122.54255 | 5500 ft | 118 kts | 93° |
| 2026-05-08 03:19 | 45.65696 | -122.53084 | 5501 ft | 118 kts | 93° |
| 2026-05-08 03:19 | 45.65671 | -122.51890 | 5498 ft | 122 kts | 93° |
| 2026-05-08 03:19 | 45.65644 | -122.50669 | 5497 ft | 124 kts | 94° |
| 2026-05-08 03:20 | 45.65617 | -122.49437 | 5497 ft | 125 kts | 93° |
| 2026-05-08 03:20 | 45.65589 | -122.48195 | 5501 ft | 125 kts | 93° |
| 2026-05-08 03:20 | 45.65561 | -122.46945 | 5502 ft | 126 kts | 93° |
| 2026-05-08 03:20 | 45.65533 | -122.45700 | 5498 ft | 128 kts | 93° |
| 2026-05-08 03:21 | 45.65505 | -122.44440 | 5497 ft | 126 kts | 93° |
| 2026-05-08 03:21 | 45.65477 | -122.43182 | 5499 ft | 127 kts | 93° |
| 2026-05-08 03:21 | 45.65449 | -122.41926 | 5497 ft | 126 kts | 94° |
| 2026-05-08 03:21 | 45.65420 | -122.40671 | 5497 ft | 127 kts | 93° |
| 2026-05-08 03:22 | 45.65391 | -122.39402 | 5497 ft | 128 kts | 93° |
| 2026-05-08 03:22 | 45.65362 | -122.38134 | 5497 ft | 128 kts | 93° |
| 2026-05-08 03:22 | 45.65333 | -122.36869 | 5498 ft | 127 kts | 93° |
| 2026-05-08 03:22 | 45.65304 | -122.35605 | 5498 ft | 127 kts | 93° |
| 2026-05-08 03:23 | 45.65275 | -122.34346 | 5498 ft | 127 kts | 93° |
| 2026-05-08 03:23 | 45.65245 | -122.33084 | 5499 ft | 128 kts | 93° |
| 2026-05-08 03:23 | 45.65215 | -122.31815 | 5548 ft | 125 kts | 93° |
| 2026-05-08 03:23 | 45.65188 | -122.30587 | 5577 ft | 126 kts | 92° |
| 2026-05-08 03:24 | 45.65158 | -122.29329 | 5571 ft | 127 kts | 93° |
| 2026-05-08 03:24 | 45.65128 | -122.28068 | 5566 ft | 126 kts | 93° |
| 2026-05-08 03:24 | 45.65098 | -122.26820 | 5573 ft | 126 kts | 93° |
| 2026-05-08 03:24 | 45.65067 | -122.25559 | 5573 ft | 127 kts | 93° |
| 2026-05-08 03:25 | 45.65037 | -122.24295 | 5577 ft | 128 kts | 93° |
| 2026-05-08 03:25 | 45.65006 | -122.23022 | 5578 ft | 128 kts | 93° |
| 2026-05-08 03:25 | 45.64975 | -122.21755 | 5569 ft | 128 kts | 93° |
| 2026-05-08 03:25 | 45.64948 | -122.20557 | 5769 ft | 114 kts | 93° |
| 2026-05-08 03:26 | 45.64922 | -122.19417 | 5854 ft | 116 kts | 93° |
| 2026-05-08 03:26 | 45.64894 | -122.18267 | 5939 ft | 115 kts | 94° |
| 2026-05-08 03:26 | 45.64867 | -122.17145 | 6052 ft | 106 kts | 92° |
| 2026-05-08 03:26 | 45.64844 | -122.16110 | 6172 ft | 104 kts | 94° |
| 2026-05-08 03:27 | 45.64818 | -122.15067 | 6283 ft | 105 kts | 94° |
| 2026-05-08 03:27 | 45.64792 | -122.14021 | 6402 ft | 105 kts | 94° |
| 2026-05-08 03:27 | 45.64766 | -122.12975 | 6523 ft | 105 kts | 94° |
| 2026-05-08 03:27 | 45.64741 | -122.11917 | 6623 ft | 107 kts | 93° |
| 2026-05-08 03:28 | 45.64832 | -122.10870 | 6761 ft | 106 kts | 81° |
| 2026-05-08 03:28 | 45.64933 | -122.09829 | 6885 ft | 106 kts | 81° |
| 2026-05-08 03:28 | 45.65033 | -122.08794 | 6980 ft | 107 kts | 81° |
| 2026-05-08 03:28 | 45.65131 | -122.07746 | 7076 ft | 106 kts | 81° |
| 2026-05-08 03:29 | 45.65231 | -122.06703 | 7158 ft | 106 kts | 81° |
| 2026-05-08 03:29 | 45.65321 | -122.05652 | 7233 ft | 107 kts | 87° |
| 2026-05-08 03:29 | 45.65360 | -122.04586 | 7331 ft | 108 kts | 87° |
| 2026-05-08 03:29 | 45.65399 | -122.03516 | 7434 ft | 108 kts | 87° |
| 2026-05-08 03:30 | 45.65464 | -122.01363 | 7594 ft | 113 kts | 88° |
| 2026-05-08 03:30 | 45.65493 | -121.99095 | 7188 ft | 113 kts | 88° |
| 2026-05-08 03:31 | 45.65610 | -121.94687 | 6292 ft | 117 kts | 82° |
| 2026-05-08 03:32 | 45.65783 | -121.93546 | 6046 ft | 118 kts | 75° |
| 2026-05-08 03:32 | 45.65971 | -121.92404 | 5792 ft | 118 kts | 75° |
| 2026-05-08 03:32 | 45.66156 | -121.91270 | 5583 ft | 114 kts | 75° |
| 2026-05-08 03:32 | 45.66307 | -121.90269 | 5561 ft | 98 kts | 75° |
| 2026-05-08 03:33 | 45.66477 | -121.89239 | 5580 ft | 116 kts | 74° |
| 2026-05-08 03:33 | 45.66676 | -121.88040 | 5587 ft | 131 kts | 74° |
| 2026-05-08 03:33 | 45.66897 | -121.86744 | 5586 ft | 138 kts | 75° |
| 2026-05-08 03:33 | 45.67122 | -121.85427 | 5579 ft | 141 kts | 74° |
| 2026-05-08 03:34 | 45.67352 | -121.84055 | 5580 ft | 144 kts | 74° |
| 2026-05-08 03:34 | 45.67589 | -121.82671 | 5574 ft | 145 kts | 74° |
| 2026-05-08 03:34 | 45.67824 | -121.81248 | 5600 ft | 150 kts | 75° |
| 2026-05-08 03:34 | 45.68058 | -121.79811 | 5548 ft | 143 kts | 73° |
| 2026-05-08 03:35 | 45.68271 | -121.78486 | 5559 ft | 136 kts | 75° |
| 2026-05-08 03:35 | 45.68484 | -121.77164 | 5559 ft | 137 kts | 75° |
| 2026-05-08 03:35 | 45.68722 | -121.75696 | 5556 ft | 136 kts | 75° |
| 2026-05-08 03:35 | 45.68941 | -121.74392 | 5550 ft | 137 kts | 74° |
| 2026-05-08 03:36 | 45.69161 | -121.73076 | 5552 ft | 133 kts | 74° |
| 2026-05-08 03:36 | 45.69365 | -121.71777 | 5250 ft | 133 kts | 76° |
| 2026-05-08 03:36 | 45.69562 | -121.70485 | 4904 ft | 132 kts | 75° |
| 2026-05-08 03:36 | 45.69759 | -121.69199 | 4549 ft | 132 kts | 75° |
| 2026-05-08 03:37 | 45.69952 | -121.67935 | 4187 ft | 129 kts | 75° |
| 2026-05-08 03:37 | 45.70067 | -121.66687 | 3917 ft | 124 kts | 83° |
| 2026-05-08 03:37 | 45.70153 | -121.65474 | 3682 ft | 121 kts | 83° |
| 2026-05-08 03:37 | 45.70247 | -121.64286 | 3450 ft | 119 kts | 83° |
| 2026-05-08 03:38 | 45.70338 | -121.63121 | 3215 ft | 117 kts | 83° |
| 2026-05-08 03:38 | 45.70432 | -121.61995 | 2996 ft | 114 kts | 83° |
| 2026-05-08 03:38 | 45.70526 | -121.60962 | 2969 ft | 96 kts | 83° |
| 2026-05-08 03:38 | 45.70605 | -121.60067 | 2922 ft | 86 kts | 83° |
| 2026-05-08 03:39 | 45.70681 | -121.59229 | 2912 ft | 93 kts | 81° |
| 2026-05-08 03:39 | 45.70684 | -121.58281 | 3113 ft | 95 kts | 104° |
| 2026-05-08 03:39 | 45.70576 | -121.57331 | 3332 ft | 98 kts | 101° |
| 2026-05-08 03:39 | 45.70470 | -121.56365 | 3512 ft | 99 kts | 101° |
| 2026-05-08 03:40 | 45.70361 | -121.55391 | 3684 ft | 99 kts | 101° |
| 2026-05-08 03:40 | 45.70254 | -121.54417 | 3867 ft | 99 kts | 101° |
| 2026-05-08 03:40 | 45.70154 | -121.53441 | 4019 ft | 103 kts | 101° |
| 2026-05-08 03:40 | 45.70033 | -121.52356 | 4037 ft | 116 kts | 101° |
| 2026-05-08 03:41 | 45.69888 | -121.51180 | 4030 ft | 124 kts | 101° |
| 2026-05-08 03:41 | 45.69731 | -121.49938 | 4030 ft | 131 kts | 101° |
| 2026-05-08 03:41 | 45.69573 | -121.48639 | 4026 ft | 135 kts | 101° |
| 2026-05-08 03:41 | 45.69408 | -121.47319 | 4024 ft | 135 kts | 101° |
| 2026-05-08 03:42 | 45.69239 | -121.46009 | 4018 ft | 133 kts | 101° |
| 2026-05-08 03:42 | 45.69079 | -121.44714 | 4018 ft | 132 kts | 101° |
| 2026-05-08 03:42 | 45.68920 | -121.43421 | 4017 ft | 132 kts | 101° |
| 2026-05-08 03:42 | 45.68760 | -121.42129 | 4013 ft | 132 kts | 101° |
| 2026-05-08 03:43 | 45.68597 | -121.40838 | 4012 ft | 134 kts | 101° |
| 2026-05-08 03:43 | 45.68431 | -121.39525 | 4014 ft | 134 kts | 101° |
| 2026-05-08 03:43 | 45.68369 | -121.38178 | 4025 ft | 136 kts | 90° |
| 2026-05-08 03:43 | 45.68329 | -121.36809 | 3803 ft | 135 kts | 94° |
| 2026-05-08 03:44 | 45.68276 | -121.35448 | 3388 ft | 137 kts | 93° |
| 2026-05-08 03:44 | 45.68205 | -121.34118 | 3115 ft | 127 kts | 96° |
| 2026-05-08 03:44 | 45.68147 | -121.32894 | 2935 ft | 125 kts | 91° |
| 2026-05-08 03:44 | 45.68130 | -121.31617 | 2594 ft | 137 kts | 87° |
| 2026-05-08 03:45 | 45.68081 | -121.30323 | 2377 ft | 123 kts | 102° |
| 2026-05-08 03:45 | 45.67896 | -121.29151 | 2067 ft | 119 kts | 102° |
| 2026-05-08 03:45 | 45.67712 | -121.27956 | 1761 ft | 127 kts | 105° |
| 2026-05-08 03:45 | 45.66833 | -121.23674 | 1545 ft | 131 kts | 116° |
| 2026-05-08 03:46 | 45.66264 | -121.22680 | 1268 ft | 130 kts | 144° |
| 2026-05-08 03:46 | 45.65684 | -121.21831 | 1125 ft | 117 kts | 135° |
| 2026-05-08 03:46 | 45.65174 | -121.21024 | 1114 ft | 113 kts | 135° |
| 2026-05-08 03:46 | 45.64576 | -121.20294 | 1152 ft | 110 kts | 147° |
| 2026-05-08 03:47 | 45.63967 | -121.19623 | 1107 ft | 109 kts | 147° |
| 2026-05-08 03:47 | 45.63334 | -121.18938 | 1156 ft | 112 kts | 147° |
| 2026-05-08 03:47 | 45.62644 | -121.18390 | 996 ft | 115 kts | 159° |
| 2026-05-08 03:47 | 45.61909 | -121.17966 | 933 ft | 113 kts | 161° |
| 2026-05-08 03:48 | 45.61205 | -121.17405 | 1010 ft | 107 kts | 156° |
| 2026-05-08 03:48 | 45.60578 | -121.16942 | 865 ft | 100 kts | 163° |
| 2026-05-08 03:48 | 45.59951 | -121.16506 | 767 ft | 101 kts | 164° |
| 2026-05-08 03:48 | 45.59624 | -121.15803 | 831 ft | 87 kts | 74° |
| 2026-05-08 03:49 | 45.59803 | -121.14986 | 872 ft | 82 kts | 53° |
| 2026-05-08 03:49 | 45.60146 | -121.14973 | 756 ft | 62 kts | 304° |
| 2026-05-08 03:49 | 45.60491 | -121.15423 | 636 ft | 65 kts | 319° |
| 2026-05-08 03:49 | 45.60809 | -121.15759 | 464 ft | 47 kts | 320° |
| 2026-05-08 03:50 | 45.61043 | -121.16028 | 299 ft | 42 kts | 326° |
| 2026-05-08 03:50 | 45.61295 | -121.16266 | 250 ft | 37 kts | 319° |
| 2026-05-08 03:50 | 45.61439 | -121.16401 | 237 ft | 13 kts | 316° |
| 2026-05-08 03:50 | 45.61515 | -121.16500 | 236 ft | 13 kts | 323° |
| 2026-05-08 03:51 | 45.61567 | -121.16561 | 233 ft | 7 kts | 313° |
| 2026-05-08 03:51 | 45.61593 | -121.16603 | 231 ft | 4 kts | 310° |
| 2026-05-08 03:51 | 45.61601 | -121.16617 | 231 ft | 1 kts | 310° |